sensor_id;sensor_type;location;lat;lon;timestamp;P1;durP1;ratioP1;P2;durP2;ratioP2
22439;SDS011;11387;51.612;7.210;2023-12-22T00:01:49;8.52;;;1.80;;
22439;SDS011;11387;51.612;7.210;2023-12-22T00:04:18;12.05;;;1.67;;
22439;SDS011;11387;51.612;7.210;2023-12-22T00:06:47;12.43;;;2.05;;
22439;SDS011;11387;51.612;7.210;2023-12-22T00:09:16;11.80;;;2.67;;
22439;SDS011;11387;51.612;7.210;2023-12-22T00:11:45;11.77;;;2.30;;
22439;SDS011;11387;51.612;7.210;2023-12-22T00:14:14;11.38;;;1.92;;
22439;SDS011;11387;51.612;7.210;2023-12-22T00:16:44;21.67;;;3.10;;
22439;SDS011;11387;51.612;7.210;2023-12-22T00:19:13;12.50;;;2.08;;
22439;SDS011;11387;51.612;7.210;2023-12-22T00:21:42;12.38;;;2.58;;
22439;SDS011;11387;51.612;7.210;2023-12-22T00:24:11;21.73;;;3.50;;
22439;SDS011;11387;51.612;7.210;2023-12-22T00:26:40;9.77;;;1.95;;
22439;SDS011;11387;51.612;7.210;2023-12-22T00:29:09;11.40;;;1.85;;
22439;SDS011;11387;51.612;7.210;2023-12-22T00:31:37;11.50;;;1.75;;
22439;SDS011;11387;51.612;7.210;2023-12-22T00:34:08;17.77;;;2.00;;
22439;SDS011;11387;51.612;7.210;2023-12-22T00:36:37;14.35;;;2.65;;
22439;SDS011;11387;51.612;7.210;2023-12-22T00:39:06;15.55;;;1.67;;
22439;SDS011;11387;51.612;7.210;2023-12-22T00:41:35;9.70;;;2.15;;
22439;SDS011;11387;51.612;7.210;2023-12-22T00:44:04;13.73;;;2.70;;
22439;SDS011;11387;51.612;7.210;2023-12-22T00:46:33;16.95;;;2.67;;
22439;SDS011;11387;51.612;7.210;2023-12-22T00:49:03;18.90;;;2.85;;
22439;SDS011;11387;51.612;7.210;2023-12-22T00:51:33;14.10;;;2.40;;
22439;SDS011;11387;51.612;7.210;2023-12-22T00:54:02;12.52;;;2.58;;
22439;SDS011;11387;51.612;7.210;2023-12-22T00:56:31;14.43;;;1.77;;
22439;SDS011;11387;51.612;7.210;2023-12-22T00:59:00;17.33;;;2.95;;
22439;SDS011;11387;51.612;7.210;2023-12-22T01:01:38;7.07;;;1.70;;
22439;SDS011;11387;51.612;7.210;2023-12-22T01:04:07;7.30;;;1.48;;
22439;SDS011;11387;51.612;7.210;2023-12-22T01:06:38;10.80;;;2.05;;
22439;SDS011;11387;51.612;7.210;2023-12-22T01:09:13;12.20;;;2.60;;
22439;SDS011;11387;51.612;7.210;2023-12-22T01:11:42;15.20;;;2.10;;
22439;SDS011;11387;51.612;7.210;2023-12-22T01:14:11;20.48;;;2.35;;
22439;SDS011;11387;51.612;7.210;2023-12-22T01:16:41;6.43;;;1.58;;
22439;SDS011;11387;51.612;7.210;2023-12-22T01:19:10;11.13;;;1.80;;
22439;SDS011;11387;51.612;7.210;2023-12-22T01:21:41;13.77;;;2.17;;
22439;SDS011;11387;51.612;7.210;2023-12-22T01:24:10;21.45;;;1.92;;
22439;SDS011;11387;51.612;7.210;2023-12-22T01:26:39;13.63;;;2.22;;
22439;SDS011;11387;51.612;7.210;2023-12-22T01:29:07;15.90;;;1.95;;
22439;SDS011;11387;51.612;7.210;2023-12-22T01:31:36;16.15;;;2.10;;
22439;SDS011;11387;51.612;7.210;2023-12-22T01:34:05;15.57;;;2.33;;
22439;SDS011;11387;51.612;7.210;2023-12-22T01:36:34;18.23;;;1.92;;
22439;SDS011;11387;51.612;7.210;2023-12-22T01:39:07;19.50;;;1.92;;
22439;SDS011;11387;51.612;7.210;2023-12-22T01:41:38;14.23;;;1.83;;
22439;SDS011;11387;51.612;7.210;2023-12-22T01:44:09;12.55;;;2.20;;
22439;SDS011;11387;51.612;7.210;2023-12-22T01:46:38;9.23;;;2.35;;
22439;SDS011;11387;51.612;7.210;2023-12-22T01:49:08;20.27;;;2.45;;
22439;SDS011;11387;51.612;7.210;2023-12-22T01:51:38;12.85;;;2.60;;
22439;SDS011;11387;51.612;7.210;2023-12-22T01:54:12;11.20;;;2.70;;
22439;SDS011;11387;51.612;7.210;2023-12-22T01:56:43;14.98;;;2.13;;
22439;SDS011;11387;51.612;7.210;2023-12-22T01:59:11;8.15;;;2.00;;
22439;SDS011;11387;51.612;7.210;2023-12-22T02:01:40;14.63;;;1.73;;
22439;SDS011;11387;51.612;7.210;2023-12-22T02:04:16;7.30;;;1.30;;
22439;SDS011;11387;51.612;7.210;2023-12-22T02:06:48;9.55;;;1.55;;
22439;SDS011;11387;51.612;7.210;2023-12-22T02:09:18;10.63;;;1.35;;
22439;SDS011;11387;51.612;7.210;2023-12-22T02:11:48;7.07;;;1.05;;
22439;SDS011;11387;51.612;7.210;2023-12-22T02:14:19;7.53;;;1.33;;
22439;SDS011;11387;51.612;7.210;2023-12-22T02:16:51;10.40;;;1.13;;
22439;SDS011;11387;51.612;7.210;2023-12-22T02:19:27;8.43;;;1.10;;
22439;SDS011;11387;51.612;7.210;2023-12-22T02:22:09;8.80;;;1.25;;
22439;SDS011;11387;51.612;7.210;2023-12-22T02:24:41;7.55;;;1.02;;
22439;SDS011;11387;51.612;7.210;2023-12-22T02:27:17;3.17;;;0.90;;
22439;SDS011;11387;51.612;7.210;2023-12-22T02:29:57;7.13;;;1.25;;
22439;SDS011;11387;51.612;7.210;2023-12-22T02:32:32;6.90;;;1.00;;
22439;SDS011;11387;51.612;7.210;2023-12-22T02:35:08;8.13;;;1.10;;
22439;SDS011;11387;51.612;7.210;2023-12-22T02:37:40;10.23;;;1.33;;
22439;SDS011;11387;51.612;7.210;2023-12-22T02:40:16;11.20;;;1.13;;
22439;SDS011;11387;51.612;7.210;2023-12-22T02:42:48;7.82;;;1.15;;
22439;SDS011;11387;51.612;7.210;2023-12-22T02:45:28;10.57;;;1.67;;
22439;SDS011;11387;51.612;7.210;2023-12-22T02:48:00;6.80;;;1.17;;
22439;SDS011;11387;51.612;7.210;2023-12-22T02:50:29;6.78;;;0.73;;
22439;SDS011;11387;51.612;7.210;2023-12-22T02:52:58;8.45;;;1.20;;
22439;SDS011;11387;51.612;7.210;2023-12-22T02:55:29;7.07;;;1.25;;
22439;SDS011;11387;51.612;7.210;2023-12-22T02:57:59;6.28;;;1.25;;
22439;SDS011;11387;51.612;7.210;2023-12-22T03:00:29;9.65;;;0.93;;
22439;SDS011;11387;51.612;7.210;2023-12-22T03:02:58;8.40;;;1.30;;
22439;SDS011;11387;51.612;7.210;2023-12-22T03:05:27;7.75;;;1.20;;
22439;SDS011;11387;51.612;7.210;2023-12-22T03:08:02;11.77;;;1.80;;
22439;SDS011;11387;51.612;7.210;2023-12-22T03:10:34;8.35;;;1.50;;
22439;SDS011;11387;51.612;7.210;2023-12-22T03:13:03;8.63;;;1.48;;
22439;SDS011;11387;51.612;7.210;2023-12-22T03:15:33;10.38;;;1.20;;
22439;SDS011;11387;51.612;7.210;2023-12-22T03:18:01;6.57;;;1.10;;
22439;SDS011;11387;51.612;7.210;2023-12-22T03:20:30;10.80;;;1.65;;
22439;SDS011;11387;51.612;7.210;2023-12-22T03:22:59;8.05;;;0.77;;
22439;SDS011;11387;51.612;7.210;2023-12-22T03:25:31;8.85;;;1.83;;
22439;SDS011;11387;51.612;7.210;2023-12-22T03:28:01;8.30;;;1.10;;
22439;SDS011;11387;51.612;7.210;2023-12-22T03:30:30;4.05;;;1.08;;
22439;SDS011;11387;51.612;7.210;2023-12-22T03:32:59;8.75;;;0.80;;
22439;SDS011;11387;51.612;7.210;2023-12-22T03:35:28;16.35;;;1.33;;
22439;SDS011;11387;51.612;7.210;2023-12-22T03:37:57;6.85;;;0.80;;
22439;SDS011;11387;51.612;7.210;2023-12-22T03:40:25;4.15;;;0.77;;
22439;SDS011;11387;51.612;7.210;2023-12-22T03:42:54;9.07;;;1.10;;
22439;SDS011;11387;51.612;7.210;2023-12-22T03:45:24;9.48;;;1.10;;
22439;SDS011;11387;51.612;7.210;2023-12-22T03:47:52;7.93;;;0.95;;
22439;SDS011;11387;51.612;7.210;2023-12-22T03:50:21;4.38;;;0.95;;
22439;SDS011;11387;51.612;7.210;2023-12-22T03:52:50;11.73;;;1.40;;
22439;SDS011;11387;51.612;7.210;2023-12-22T03:55:18;16.55;;;2.13;;
22439;SDS011;11387;51.612;7.210;2023-12-22T03:57:47;13.07;;;1.85;;
22439;SDS011;11387;51.612;7.210;2023-12-22T04:00:16;11.15;;;2.28;;
22439;SDS011;11387;51.612;7.210;2023-12-22T04:02:46;14.65;;;1.92;;
22439;SDS011;11387;51.612;7.210;2023-12-22T04:05:15;15.23;;;2.08;;
22439;SDS011;11387;51.612;7.210;2023-12-22T04:07:44;9.30;;;1.95;;
22439;SDS011;11387;51.612;7.210;2023-12-22T04:10:15;8.60;;;1.10;;
22439;SDS011;11387;51.612;7.210;2023-12-22T04:12:44;8.13;;;1.15;;
22439;SDS011;11387;51.612;7.210;2023-12-22T04:15:13;7.50;;;1.15;;
22439;SDS011;11387;51.612;7.210;2023-12-22T04:17:42;4.05;;;0.57;;
22439;SDS011;11387;51.612;7.210;2023-12-22T04:20:12;5.32;;;0.60;;
22439;SDS011;11387;51.612;7.210;2023-12-22T04:22:48;3.85;;;0.85;;
22439;SDS011;11387;51.612;7.210;2023-12-22T04:25:17;5.20;;;1.23;;
22439;SDS011;11387;51.612;7.210;2023-12-22T04:27:46;7.55;;;1.10;;
22439;SDS011;11387;51.612;7.210;2023-12-22T04:30:15;7.90;;;1.23;;
22439;SDS011;11387;51.612;7.210;2023-12-22T04:32:44;6.75;;;1.02;;
22439;SDS011;11387;51.612;7.210;2023-12-22T04:35:14;11.57;;;1.60;;
22439;SDS011;11387;51.612;7.210;2023-12-22T04:37:42;15.73;;;2.00;;
22439;SDS011;11387;51.612;7.210;2023-12-22T04:40:11;15.32;;;1.58;;
22439;SDS011;11387;51.612;7.210;2023-12-22T04:42:40;10.35;;;1.48;;
22439;SDS011;11387;51.612;7.210;2023-12-22T04:45:08;9.43;;;1.38;;
22439;SDS011;11387;51.612;7.210;2023-12-22T04:47:37;9.43;;;1.25;;
22439;SDS011;11387;51.612;7.210;2023-12-22T04:50:06;8.82;;;1.13;;
22439;SDS011;11387;51.612;7.210;2023-12-22T04:52:36;10.40;;;1.75;;
22439;SDS011;11387;51.612;7.210;2023-12-22T04:55:05;12.02;;;1.40;;
22439;SDS011;11387;51.612;7.210;2023-12-22T04:57:34;19.27;;;2.30;;
22439;SDS011;11387;51.612;7.210;2023-12-22T05:00:03;7.00;;;1.10;;
22439;SDS011;11387;51.612;7.210;2023-12-22T05:02:32;19.05;;;1.83;;
22439;SDS011;11387;51.612;7.210;2023-12-22T05:05:01;14.52;;;1.90;;
22439;SDS011;11387;51.612;7.210;2023-12-22T05:07:30;19.80;;;1.40;;
22439;SDS011;11387;51.612;7.210;2023-12-22T05:10:00;8.88;;;1.60;;
22439;SDS011;11387;51.612;7.210;2023-12-22T05:12:30;15.00;;;1.80;;
22439;SDS011;11387;51.612;7.210;2023-12-22T05:14:58;8.05;;;1.35;;
22439;SDS011;11387;51.612;7.210;2023-12-22T05:17:27;11.52;;;1.75;;
22439;SDS011;11387;51.612;7.210;2023-12-22T05:19:55;9.75;;;1.40;;
22439;SDS011;11387;51.612;7.210;2023-12-22T05:22:24;15.43;;;2.17;;
22439;SDS011;11387;51.612;7.210;2023-12-22T05:24:53;11.13;;;1.60;;
22439;SDS011;11387;51.612;7.210;2023-12-22T05:27:23;12.27;;;2.28;;
22439;SDS011;11387;51.612;7.210;2023-12-22T05:29:53;13.50;;;2.38;;
22439;SDS011;11387;51.612;7.210;2023-12-22T05:32:21;14.07;;;2.03;;
22439;SDS011;11387;51.612;7.210;2023-12-22T05:34:50;16.45;;;2.15;;
22439;SDS011;11387;51.612;7.210;2023-12-22T05:37:19;23.17;;;3.38;;
22439;SDS011;11387;51.612;7.210;2023-12-22T05:39:47;10.65;;;1.90;;
22439;SDS011;11387;51.612;7.210;2023-12-22T05:42:16;11.48;;;2.10;;
22439;SDS011;11387;51.612;7.210;2023-12-22T05:44:46;12.38;;;1.90;;
22439;SDS011;11387;51.612;7.210;2023-12-22T05:47:17;10.10;;;2.13;;
22439;SDS011;11387;51.612;7.210;2023-12-22T05:49:46;17.50;;;2.70;;
22439;SDS011;11387;51.612;7.210;2023-12-22T05:52:14;20.13;;;2.75;;
22439;SDS011;11387;51.612;7.210;2023-12-22T05:54:43;8.57;;;1.50;;
22439;SDS011;11387;51.612;7.210;2023-12-22T05:57:12;15.38;;;1.92;;
22439;SDS011;11387;51.612;7.210;2023-12-22T05:59:41;10.95;;;1.83;;
22439;SDS011;11387;51.612;7.210;2023-12-22T06:02:11;16.15;;;2.17;;
22439;SDS011;11387;51.612;7.210;2023-12-22T06:04:40;17.35;;;2.80;;
22439;SDS011;11387;51.612;7.210;2023-12-22T06:07:08;17.55;;;2.33;;
22439;SDS011;11387;51.612;7.210;2023-12-22T06:09:38;15.13;;;2.15;;
22439;SDS011;11387;51.612;7.210;2023-12-22T06:12:07;11.52;;;1.63;;
22439;SDS011;11387;51.612;7.210;2023-12-22T06:14:39;16.98;;;2.55;;
22439;SDS011;11387;51.612;7.210;2023-12-22T06:17:08;17.80;;;3.38;;
22439;SDS011;11387;51.612;7.210;2023-12-22T06:19:39;11.10;;;2.70;;
22439;SDS011;11387;51.612;7.210;2023-12-22T06:22:08;16.45;;;2.13;;
22439;SDS011;11387;51.612;7.210;2023-12-22T06:24:36;21.95;;;2.60;;
22439;SDS011;11387;51.612;7.210;2023-12-22T06:27:05;12.63;;;2.55;;
22439;SDS011;11387;51.612;7.210;2023-12-22T06:29:34;11.27;;;2.05;;
22439;SDS011;11387;51.612;7.210;2023-12-22T06:32:03;17.17;;;3.20;;
22439;SDS011;11387;51.612;7.210;2023-12-22T06:34:33;11.38;;;1.67;;
22439;SDS011;11387;51.612;7.210;2023-12-22T06:37:03;16.15;;;2.25;;
22439;SDS011;11387;51.612;7.210;2023-12-22T06:39:34;18.55;;;2.67;;
22439;SDS011;11387;51.612;7.210;2023-12-22T06:42:03;18.15;;;2.22;;
22439;SDS011;11387;51.612;7.210;2023-12-22T06:44:38;12.27;;;2.38;;
22439;SDS011;11387;51.612;7.210;2023-12-22T06:47:07;23.58;;;3.03;;
22439;SDS011;11387;51.612;7.210;2023-12-22T06:49:36;13.18;;;2.55;;
22439;SDS011;11387;51.612;7.210;2023-12-22T06:52:06;16.48;;;3.28;;
22439;SDS011;11387;51.612;7.210;2023-12-22T06:54:34;21.42;;;3.13;;
22439;SDS011;11387;51.612;7.210;2023-12-22T06:57:04;13.13;;;2.38;;
22439;SDS011;11387;51.612;7.210;2023-12-22T06:59:34;19.23;;;2.47;;
22439;SDS011;11387;51.612;7.210;2023-12-22T07:02:05;19.92;;;2.72;;
22439;SDS011;11387;51.612;7.210;2023-12-22T07:07:56;13.93;;;3.10;;
22439;SDS011;11387;51.612;7.210;2023-12-22T07:10:24;20.92;;;2.75;;
22439;SDS011;11387;51.612;7.210;2023-12-22T07:12:53;22.25;;;3.40;;
22439;SDS011;11387;51.612;7.210;2023-12-22T07:15:21;16.10;;;2.78;;
22439;SDS011;11387;51.612;7.210;2023-12-22T07:17:50;26.73;;;2.97;;
22439;SDS011;11387;51.612;7.210;2023-12-22T07:20:19;24.85;;;3.05;;
22439;SDS011;11387;51.612;7.210;2023-12-22T07:22:48;16.13;;;2.63;;
22439;SDS011;11387;51.612;7.210;2023-12-22T07:25:19;19.20;;;2.85;;
22439;SDS011;11387;51.612;7.210;2023-12-22T07:27:48;23.60;;;2.78;;
22439;SDS011;11387;51.612;7.210;2023-12-22T07:30:17;18.65;;;2.50;;
22439;SDS011;11387;51.612;7.210;2023-12-22T07:32:47;20.40;;;3.03;;
22439;SDS011;11387;51.612;7.210;2023-12-22T07:35:19;23.90;;;3.20;;
22439;SDS011;11387;51.612;7.210;2023-12-22T07:37:48;21.08;;;3.13;;
22439;SDS011;11387;51.612;7.210;2023-12-22T07:40:17;19.70;;;3.08;;
22439;SDS011;11387;51.612;7.210;2023-12-22T07:42:48;16.58;;;3.20;;
22439;SDS011;11387;51.612;7.210;2023-12-22T07:45:18;17.63;;;2.47;;
22439;SDS011;11387;51.612;7.210;2023-12-22T07:47:47;18.98;;;3.38;;
22439;SDS011;11387;51.612;7.210;2023-12-22T07:50:16;20.35;;;3.50;;
22439;SDS011;11387;51.612;7.210;2023-12-22T07:52:46;21.75;;;3.72;;
22439;SDS011;11387;51.612;7.210;2023-12-22T07:55:15;14.75;;;3.05;;
22439;SDS011;11387;51.612;7.210;2023-12-22T07:57:44;23.88;;;3.53;;
22439;SDS011;11387;51.612;7.210;2023-12-22T08:00:15;20.30;;;3.42;;
22439;SDS011;11387;51.612;7.210;2023-12-22T08:02:44;24.27;;;4.18;;
22439;SDS011;11387;51.612;7.210;2023-12-22T08:05:13;25.33;;;3.50;;
22439;SDS011;11387;51.612;7.210;2023-12-22T08:07:41;20.45;;;3.13;;
22439;SDS011;11387;51.612;7.210;2023-12-22T08:10:10;15.07;;;2.85;;
22439;SDS011;11387;51.612;7.210;2023-12-22T08:12:38;28.25;;;3.88;;
22439;SDS011;11387;51.612;7.210;2023-12-22T08:15:07;21.85;;;3.50;;
22439;SDS011;11387;51.612;7.210;2023-12-22T08:17:48;34.75;;;3.72;;
22439;SDS011;11387;51.612;7.210;2023-12-22T08:20:19;23.70;;;3.50;;
22439;SDS011;11387;51.612;7.210;2023-12-22T08:22:57;30.20;;;4.80;;
22439;SDS011;11387;51.612;7.210;2023-12-22T08:25:32;31.35;;;3.90;;
22439;SDS011;11387;51.612;7.210;2023-12-22T08:28:01;18.42;;;3.20;;
22439;SDS011;11387;51.612;7.210;2023-12-22T08:30:29;21.55;;;4.65;;
22439;SDS011;11387;51.612;7.210;2023-12-22T08:32:59;26.27;;;4.35;;
22439;SDS011;11387;51.612;7.210;2023-12-22T08:35:28;29.40;;;4.88;;
22439;SDS011;11387;51.612;7.210;2023-12-22T08:37:57;30.98;;;4.75;;
22439;SDS011;11387;51.612;7.210;2023-12-22T08:40:26;26.77;;;3.97;;
22439;SDS011;11387;51.612;7.210;2023-12-22T08:42:55;40.50;;;4.72;;
22439;SDS011;11387;51.612;7.210;2023-12-22T08:45:27;25.27;;;4.18;;
22439;SDS011;11387;51.612;7.210;2023-12-22T08:47:56;41.03;;;5.82;;
22439;SDS011;11387;51.612;7.210;2023-12-22T08:50:27;24.05;;;5.05;;
22439;SDS011;11387;51.612;7.210;2023-12-22T08:52:55;25.98;;;3.90;;
22439;SDS011;11387;51.612;7.210;2023-12-22T08:55:24;33.75;;;5.05;;
22439;SDS011;11387;51.612;7.210;2023-12-22T08:57:53;30.17;;;6.90;;
22439;SDS011;11387;51.612;7.210;2023-12-22T09:00:29;35.58;;;6.95;;
22439;SDS011;11387;51.612;7.210;2023-12-22T09:02:57;37.20;;;6.03;;
22439;SDS011;11387;51.612;7.210;2023-12-22T09:05:27;33.70;;;6.53;;
22439;SDS011;11387;51.612;7.210;2023-12-22T09:07:56;41.70;;;7.13;;
22439;SDS011;11387;51.612;7.210;2023-12-22T09:10:25;49.95;;;6.38;;
22439;SDS011;11387;51.612;7.210;2023-12-22T09:12:53;37.53;;;7.30;;
22439;SDS011;11387;51.612;7.210;2023-12-22T09:15:22;47.97;;;6.18;;
22439;SDS011;11387;51.612;7.210;2023-12-22T09:17:51;44.25;;;7.30;;
22439;SDS011;11387;51.612;7.210;2023-12-22T09:20:21;46.85;;;7.53;;
22439;SDS011;11387;51.612;7.210;2023-12-22T09:22:51;37.80;;;6.68;;
22439;SDS011;11387;51.612;7.210;2023-12-22T09:25:20;30.40;;;4.78;;
22439;SDS011;11387;51.612;7.210;2023-12-22T09:27:48;32.45;;;5.75;;
22439;SDS011;11387;51.612;7.210;2023-12-22T09:30:17;28.98;;;5.47;;
22439;SDS011;11387;51.612;7.210;2023-12-22T09:32:45;26.52;;;4.65;;
22439;SDS011;11387;51.612;7.210;2023-12-22T09:35:14;34.08;;;6.13;;
22439;SDS011;11387;51.612;7.210;2023-12-22T09:37:43;35.30;;;5.75;;
22439;SDS011;11387;51.612;7.210;2023-12-22T09:40:14;34.55;;;5.70;;
22439;SDS011;11387;51.612;7.210;2023-12-22T09:42:43;26.95;;;4.28;;
22439;SDS011;11387;51.612;7.210;2023-12-22T09:45:13;33.22;;;4.78;;
22439;SDS011;11387;51.612;7.210;2023-12-22T09:47:46;24.45;;;4.78;;
22439;SDS011;11387;51.612;7.210;2023-12-22T09:50:16;21.08;;;4.78;;
22439;SDS011;11387;51.612;7.210;2023-12-22T09:52:46;27.23;;;3.58;;
22439;SDS011;11387;51.612;7.210;2023-12-22T09:55:16;27.30;;;3.53;;
22439;SDS011;11387;51.612;7.210;2023-12-22T09:57:45;25.75;;;5.10;;
22439;SDS011;11387;51.612;7.210;2023-12-22T10:00:15;28.50;;;3.80;;
22439;SDS011;11387;51.612;7.210;2023-12-22T10:02:48;15.82;;;3.28;;
22439;SDS011;11387;51.612;7.210;2023-12-22T10:05:17;17.83;;;2.92;;
22439;SDS011;11387;51.612;7.210;2023-12-22T10:07:46;19.35;;;2.92;;
22439;SDS011;11387;51.612;7.210;2023-12-22T10:10:18;34.20;;;3.83;;
22439;SDS011;11387;51.612;7.210;2023-12-22T10:12:48;22.25;;;2.97;;
22439;SDS011;11387;51.612;7.210;2023-12-22T10:15:20;24.08;;;3.72;;
22439;SDS011;11387;51.612;7.210;2023-12-22T10:17:51;20.98;;;3.85;;
22439;SDS011;11387;51.612;7.210;2023-12-22T10:20:20;22.48;;;2.83;;
22439;SDS011;11387;51.612;7.210;2023-12-22T10:22:49;26.38;;;4.60;;
22439;SDS011;11387;51.612;7.210;2023-12-22T10:25:20;24.60;;;3.53;;
22439;SDS011;11387;51.612;7.210;2023-12-22T10:27:56;31.67;;;4.25;;
22439;SDS011;11387;51.612;7.210;2023-12-22T10:30:25;19.75;;;4.30;;
22439;SDS011;11387;51.612;7.210;2023-12-22T10:32:55;25.50;;;4.63;;
22439;SDS011;11387;51.612;7.210;2023-12-22T10:35:24;39.53;;;5.30;;
22439;SDS011;11387;51.612;7.210;2023-12-22T10:37:54;29.95;;;4.72;;
22439;SDS011;11387;51.612;7.210;2023-12-22T10:40:28;24.33;;;4.22;;
22439;SDS011;11387;51.612;7.210;2023-12-22T10:43:04;41.47;;;5.70;;
22439;SDS011;11387;51.612;7.210;2023-12-22T10:45:33;25.77;;;5.13;;
22439;SDS011;11387;51.612;7.210;2023-12-22T10:48:02;25.02;;;6.07;;
22439;SDS011;11387;51.612;7.210;2023-12-22T10:50:31;31.35;;;4.10;;
22439;SDS011;11387;51.612;7.210;2023-12-22T10:53:00;20.45;;;4.13;;
22439;SDS011;11387;51.612;7.210;2023-12-22T10:55:31;15.50;;;4.03;;
22439;SDS011;11387;51.612;7.210;2023-12-22T10:58:01;32.78;;;4.57;;
22439;SDS011;11387;51.612;7.210;2023-12-22T11:00:30;17.70;;;4.82;;
22439;SDS011;11387;51.612;7.210;2023-12-22T11:03:01;26.00;;;3.65;;
22439;SDS011;11387;51.612;7.210;2023-12-22T11:05:33;22.35;;;3.60;;
22439;SDS011;11387;51.612;7.210;2023-12-22T11:08:06;27.52;;;4.43;;
22439;SDS011;11387;51.612;7.210;2023-12-22T11:10:38;32.83;;;3.95;;
22439;SDS011;11387;51.612;7.210;2023-12-22T11:13:11;24.73;;;4.75;;
22439;SDS011;11387;51.612;7.210;2023-12-22T11:15:41;23.42;;;3.28;;
22439;SDS011;11387;51.612;7.210;2023-12-22T11:18:11;24.65;;;3.88;;
22439;SDS011;11387;51.612;7.210;2023-12-22T11:20:42;22.35;;;3.17;;
22439;SDS011;11387;51.612;7.210;2023-12-22T11:23:12;20.75;;;3.60;;
22439;SDS011;11387;51.612;7.210;2023-12-22T11:25:49;12.10;;;2.45;;
22439;SDS011;11387;51.612;7.210;2023-12-22T11:28:21;16.15;;;2.55;;
22439;SDS011;11387;51.612;7.210;2023-12-22T11:30:52;18.17;;;2.50;;
22439;SDS011;11387;51.612;7.210;2023-12-22T11:33:25;8.18;;;1.40;;
22439;SDS011;11387;51.612;7.210;2023-12-22T11:35:55;7.75;;;1.70;;
22439;SDS011;11387;51.612;7.210;2023-12-22T11:38:24;10.05;;;1.90;;
22439;SDS011;11387;51.612;7.210;2023-12-22T11:40:54;5.72;;;1.45;;
22439;SDS011;11387;51.612;7.210;2023-12-22T11:43:23;10.07;;;2.08;;
22439;SDS011;11387;51.612;7.210;2023-12-22T11:45:52;10.38;;;1.55;;
22439;SDS011;11387;51.612;7.210;2023-12-22T11:48:21;8.70;;;1.40;;
22439;SDS011;11387;51.612;7.210;2023-12-22T11:50:51;8.50;;;1.48;;
22439;SDS011;11387;51.612;7.210;2023-12-22T11:53:22;3.63;;;1.00;;
22439;SDS011;11387;51.612;7.210;2023-12-22T11:56:00;9.75;;;2.03;;
22439;SDS011;11387;51.612;7.210;2023-12-22T11:58:35;7.97;;;1.40;;
22439;SDS011;11387;51.612;7.210;2023-12-22T12:01:06;12.57;;;1.40;;
22439;SDS011;11387;51.612;7.210;2023-12-22T12:03:37;6.32;;;1.30;;
22439;SDS011;11387;51.612;7.210;2023-12-22T12:06:11;9.38;;;1.80;;
22439;SDS011;11387;51.612;7.210;2023-12-22T12:08:44;9.23;;;2.13;;
22439;SDS011;11387;51.612;7.210;2023-12-22T12:11:14;10.05;;;2.63;;
22439;SDS011;11387;51.612;7.210;2023-12-22T12:13:43;14.85;;;2.42;;
22439;SDS011;11387;51.612;7.210;2023-12-22T12:16:15;12.27;;;3.28;;
22439;SDS011;11387;51.612;7.210;2023-12-22T12:18:49;11.85;;;2.88;;
22439;SDS011;11387;51.612;7.210;2023-12-22T12:21:20;13.07;;;3.15;;
22439;SDS011;11387;51.612;7.210;2023-12-22T12:23:51;14.05;;;2.92;;
22439;SDS011;11387;51.612;7.210;2023-12-22T12:26:21;10.52;;;2.53;;
22439;SDS011;11387;51.612;7.210;2023-12-22T12:28:53;11.05;;;2.30;;
22439;SDS011;11387;51.612;7.210;2023-12-22T12:31:28;9.20;;;2.33;;
22439;SDS011;11387;51.612;7.210;2023-12-22T12:34:04;14.90;;;3.60;;
22439;SDS011;11387;51.612;7.210;2023-12-22T12:36:34;12.88;;;2.13;;
22439;SDS011;11387;51.612;7.210;2023-12-22T12:39:06;6.82;;;1.65;;
22439;SDS011;11387;51.612;7.210;2023-12-22T12:41:39;11.07;;;2.20;;
22439;SDS011;11387;51.612;7.210;2023-12-22T12:44:10;10.38;;;2.38;;
22439;SDS011;11387;51.612;7.210;2023-12-22T12:46:40;3.22;;;1.17;;
22439;SDS011;11387;51.612;7.210;2023-12-22T12:49:09;5.63;;;1.30;;
22439;SDS011;11387;51.612;7.210;2023-12-22T12:51:41;5.38;;;1.20;;
22439;SDS011;11387;51.612;7.210;2023-12-22T12:54:11;11.07;;;1.70;;
22439;SDS011;11387;51.612;7.210;2023-12-22T12:56:43;8.45;;;1.80;;
22439;SDS011;11387;51.612;7.210;2023-12-22T12:59:14;9.30;;;2.20;;
22439;SDS011;11387;51.612;7.210;2023-12-22T13:01:45;10.18;;;3.00;;
22439;SDS011;11387;51.612;7.210;2023-12-22T13:04:15;7.85;;;2.22;;
22439;SDS011;11387;51.612;7.210;2023-12-22T13:06:44;6.35;;;2.10;;
22439;SDS011;11387;51.612;7.210;2023-12-22T13:09:13;10.15;;;2.22;;
22439;SDS011;11387;51.612;7.210;2023-12-22T13:11:44;12.68;;;3.03;;
22439;SDS011;11387;51.612;7.210;2023-12-22T13:14:21;15.07;;;3.38;;
22439;SDS011;11387;51.612;7.210;2023-12-22T13:16:52;12.03;;;2.13;;
22439;SDS011;11387;51.612;7.210;2023-12-22T13:19:22;6.22;;;1.73;;
22439;SDS011;11387;51.612;7.210;2023-12-22T13:21:52;11.77;;;1.80;;
22439;SDS011;11387;51.612;7.210;2023-12-22T13:24:22;8.57;;;1.83;;
22439;SDS011;11387;51.612;7.210;2023-12-22T13:27:00;7.75;;;1.70;;
22439;SDS011;11387;51.612;7.210;2023-12-22T13:29:33;14.57;;;1.75;;
22439;SDS011;11387;51.612;7.210;2023-12-22T13:32:17;9.45;;;1.83;;
22439;SDS011;11387;51.612;7.210;2023-12-22T13:34:49;7.65;;;1.55;;
22439;SDS011;11387;51.612;7.210;2023-12-22T13:37:19;5.57;;;1.25;;
22439;SDS011;11387;51.612;7.210;2023-12-22T13:39:49;8.63;;;2.40;;
22439;SDS011;11387;51.612;7.210;2023-12-22T13:42:20;14.73;;;2.22;;
22439;SDS011;11387;51.612;7.210;2023-12-22T13:44:49;9.10;;;2.38;;
22439;SDS011;11387;51.612;7.210;2023-12-22T13:47:20;6.85;;;2.00;;
22439;SDS011;11387;51.612;7.210;2023-12-22T13:49:49;11.98;;;2.28;;
22439;SDS011;11387;51.612;7.210;2023-12-22T13:52:24;7.30;;;2.22;;
22439;SDS011;11387;51.612;7.210;2023-12-22T13:54:54;10.95;;;2.10;;
22439;SDS011;11387;51.612;7.210;2023-12-22T13:57:27;10.95;;;3.00;;
22439;SDS011;11387;51.612;7.210;2023-12-22T13:59:55;8.93;;;1.85;;
22439;SDS011;11387;51.612;7.210;2023-12-22T14:02:24;7.60;;;2.47;;
22439;SDS011;11387;51.612;7.210;2023-12-22T14:04:53;12.02;;;2.47;;
22439;SDS011;11387;51.612;7.210;2023-12-22T14:07:22;14.40;;;2.80;;
22439;SDS011;11387;51.612;7.210;2023-12-22T14:09:51;15.93;;;2.40;;
22439;SDS011;11387;51.612;7.210;2023-12-22T14:12:19;19.13;;;3.08;;
22439;SDS011;11387;51.612;7.210;2023-12-22T14:14:59;13.13;;;2.70;;
22439;SDS011;11387;51.612;7.210;2023-12-22T14:17:28;12.93;;;2.88;;
22439;SDS011;11387;51.612;7.210;2023-12-22T14:19:59;14.73;;;2.58;;
22439;SDS011;11387;51.612;7.210;2023-12-22T14:22:29;13.18;;;2.40;;
22439;SDS011;11387;51.612;7.210;2023-12-22T14:24:57;12.13;;;2.65;;
22439;SDS011;11387;51.612;7.210;2023-12-22T14:27:26;13.95;;;2.10;;
22439;SDS011;11387;51.612;7.210;2023-12-22T14:29:55;15.32;;;2.42;;
22439;SDS011;11387;51.612;7.210;2023-12-22T14:32:25;10.18;;;2.20;;
22439;SDS011;11387;51.612;7.210;2023-12-22T14:34:53;12.88;;;2.13;;
22439;SDS011;11387;51.612;7.210;2023-12-22T14:37:22;7.28;;;2.20;;
22439;SDS011;11387;51.612;7.210;2023-12-22T14:39:51;11.70;;;2.35;;
22439;SDS011;11387;51.612;7.210;2023-12-22T14:42:19;9.95;;;2.15;;
22439;SDS011;11387;51.612;7.210;2023-12-22T14:44:48;18.75;;;2.92;;
22439;SDS011;11387;51.612;7.210;2023-12-22T14:47:17;10.18;;;1.88;;
22439;SDS011;11387;51.612;7.210;2023-12-22T14:49:47;10.90;;;2.55;;
22439;SDS011;11387;51.612;7.210;2023-12-22T14:52:16;12.43;;;2.00;;
22439;SDS011;11387;51.612;7.210;2023-12-22T14:54:45;13.10;;;1.92;;
22439;SDS011;11387;51.612;7.210;2023-12-22T14:57:14;11.63;;;1.85;;
22439;SDS011;11387;51.612;7.210;2023-12-22T14:59:46;12.75;;;2.38;;